sensor_id;sensor_type;location;lat;lon;timestamp;P1;durP1;ratioP1;P2;durP2;ratioP2
65206;SDS011;58477;48.072;11.970;2023-07-13T00:01:29;3.70;;;1.75;;
65206;SDS011;58477;48.072;11.970;2023-07-13T00:03:55;2.28;;;2.00;;
65206;SDS011;58477;48.072;11.970;2023-07-13T00:06:21;3.25;;;1.90;;
65206;SDS011;58477;48.072;11.970;2023-07-13T00:08:47;1.90;;;1.80;;
65206;SDS011;58477;48.072;11.970;2023-07-13T00:11:14;4.28;;;2.00;;
65206;SDS011;58477;48.072;11.970;2023-07-13T00:13:40;2.20;;;1.88;;
65206;SDS011;58477;48.072;11.970;2023-07-13T00:16:08;3.40;;;2.10;;
65206;SDS011;58477;48.072;11.970;2023-07-13T00:18:35;2.75;;;1.88;;
65206;SDS011;58477;48.072;11.970;2023-07-13T00:21:02;2.50;;;1.70;;
65206;SDS011;58477;48.072;11.970;2023-07-13T00:23:37;2.25;;;2.00;;
65206;SDS011;58477;48.072;11.970;2023-07-13T00:26:04;4.13;;;2.00;;
65206;SDS011;58477;48.072;11.970;2023-07-13T00:28:31;4.72;;;2.00;;
65206;SDS011;58477;48.072;11.970;2023-07-13T00:30:57;3.17;;;1.73;;
65206;SDS011;58477;48.072;11.970;2023-07-13T00:33:23;3.03;;;1.85;;
65206;SDS011;58477;48.072;11.970;2023-07-13T00:35:49;4.38;;;1.92;;
65206;SDS011;58477;48.072;11.970;2023-07-13T00:38:15;1.60;;;1.50;;
65206;SDS011;58477;48.072;11.970;2023-07-13T00:40:40;4.05;;;1.90;;
65206;SDS011;58477;48.072;11.970;2023-07-13T00:43:12;2.90;;;1.70;;
65206;SDS011;58477;48.072;11.970;2023-07-13T00:48:31;3.08;;;1.80;;
65206;SDS011;58477;48.072;11.970;2023-07-13T00:50:58;1.98;;;1.73;;
65206;SDS011;58477;48.072;11.970;2023-07-13T00:53:26;2.53;;;1.88;;
65206;SDS011;58477;48.072;11.970;2023-07-13T00:55:53;4.88;;;1.65;;
65206;SDS011;58477;48.072;11.970;2023-07-13T00:58:21;5.18;;;1.50;;
65206;SDS011;58477;48.072;11.970;2023-07-13T01:00:48;2.83;;;2.00;;
65206;SDS011;58477;48.072;11.970;2023-07-13T01:03:14;5.22;;;1.98;;
65206;SDS011;58477;48.072;11.970;2023-07-13T01:05:40;5.60;;;2.10;;
65206;SDS011;58477;48.072;11.970;2023-07-13T01:08:06;2.33;;;1.50;;
65206;SDS011;58477;48.072;11.970;2023-07-13T01:10:33;2.53;;;2.00;;
65206;SDS011;58477;48.072;11.970;2023-07-13T01:13:04;4.60;;;1.70;;
65206;SDS011;58477;48.072;11.970;2023-07-13T01:15:34;3.85;;;1.67;;
65206;SDS011;58477;48.072;11.970;2023-07-13T01:18:12;1.83;;;1.42;;
65206;SDS011;58477;48.072;11.970;2023-07-13T01:20:41;5.35;;;1.90;;
65206;SDS011;58477;48.072;11.970;2023-07-13T01:23:12;2.50;;;1.77;;
65206;SDS011;58477;48.072;11.970;2023-07-13T01:25:38;2.28;;;1.70;;
65206;SDS011;58477;48.072;11.970;2023-07-13T01:28:08;5.47;;;1.98;;
65206;SDS011;58477;48.072;11.970;2023-07-13T01:30:35;2.50;;;1.80;;
65206;SDS011;58477;48.072;11.970;2023-07-13T01:33:01;4.10;;;2.00;;
65206;SDS011;58477;48.072;11.970;2023-07-13T01:35:29;1.52;;;1.42;;
65206;SDS011;58477;48.072;11.970;2023-07-13T01:37:54;4.43;;;1.75;;
65206;SDS011;58477;48.072;11.970;2023-07-13T01:40:20;2.72;;;1.63;;
65206;SDS011;58477;48.072;11.970;2023-07-13T01:42:46;5.18;;;1.60;;
65206;SDS011;58477;48.072;11.970;2023-07-13T01:45:11;3.38;;;1.60;;
65206;SDS011;58477;48.072;11.970;2023-07-13T01:47:37;4.15;;;1.48;;
65206;SDS011;58477;48.072;11.970;2023-07-13T01:50:02;5.28;;;1.52;;
65206;SDS011;58477;48.072;11.970;2023-07-13T01:52:28;4.32;;;1.80;;
65206;SDS011;58477;48.072;11.970;2023-07-13T01:54:53;5.20;;;1.83;;
65206;SDS011;58477;48.072;11.970;2023-07-13T01:57:19;1.55;;;1.45;;
65206;SDS011;58477;48.072;11.970;2023-07-13T01:59:45;4.00;;;1.50;;
65206;SDS011;58477;48.072;11.970;2023-07-13T02:02:10;2.50;;;1.75;;
65206;SDS011;58477;48.072;11.970;2023-07-13T02:04:36;3.15;;;1.85;;
65206;SDS011;58477;48.072;11.970;2023-07-13T02:07:01;3.05;;;1.80;;
65206;SDS011;58477;48.072;11.970;2023-07-13T02:09:27;2.40;;;1.77;;
65206;SDS011;58477;48.072;11.970;2023-07-13T02:11:53;6.78;;;1.70;;
65206;SDS011;58477;48.072;11.970;2023-07-13T02:14:18;1.70;;;1.60;;
65206;SDS011;58477;48.072;11.970;2023-07-13T02:16:44;2.78;;;1.60;;
65206;SDS011;58477;48.072;11.970;2023-07-13T02:19:09;1.63;;;1.45;;
65206;SDS011;58477;48.072;11.970;2023-07-13T02:21:35;3.72;;;1.50;;
65206;SDS011;58477;48.072;11.970;2023-07-13T02:24:00;4.60;;;1.90;;
65206;SDS011;58477;48.072;11.970;2023-07-13T02:26:26;5.63;;;2.30;;
65206;SDS011;58477;48.072;11.970;2023-07-13T02:28:52;6.70;;;1.80;;
65206;SDS011;58477;48.072;11.970;2023-07-13T02:31:19;2.20;;;1.70;;
65206;SDS011;58477;48.072;11.970;2023-07-13T02:33:45;3.65;;;1.75;;
65206;SDS011;58477;48.072;11.970;2023-07-13T02:36:11;3.40;;;1.73;;
65206;SDS011;58477;48.072;11.970;2023-07-13T02:38:37;5.00;;;1.65;;
65206;SDS011;58477;48.072;11.970;2023-07-13T02:41:06;2.88;;;1.75;;
65206;SDS011;58477;48.072;11.970;2023-07-13T02:43:33;4.35;;;1.70;;
65206;SDS011;58477;48.072;11.970;2023-07-13T02:45:59;2.30;;;1.70;;
65206;SDS011;58477;48.072;11.970;2023-07-13T02:48:31;5.53;;;1.70;;
65206;SDS011;58477;48.072;11.970;2023-07-13T02:50:57;6.32;;;1.50;;
65206;SDS011;58477;48.072;11.970;2023-07-13T02:53:22;2.95;;;1.45;;
65206;SDS011;58477;48.072;11.970;2023-07-13T02:55:48;4.25;;;1.38;;
65206;SDS011;58477;48.072;11.970;2023-07-13T02:58:13;2.05;;;1.10;;
65206;SDS011;58477;48.072;11.970;2023-07-13T03:00:45;3.63;;;1.23;;
65206;SDS011;58477;48.072;11.970;2023-07-13T03:03:13;2.55;;;1.42;;
65206;SDS011;58477;48.072;11.970;2023-07-13T03:05:39;2.67;;;1.40;;
65206;SDS011;58477;48.072;11.970;2023-07-13T03:10:21;3.67;;;1.40;;
65206;SDS011;58477;48.072;11.970;2023-07-13T03:12:49;1.85;;;1.50;;
65206;SDS011;58477;48.072;11.970;2023-07-13T03:15:22;1.63;;;1.40;;
65206;SDS011;58477;48.072;11.970;2023-07-13T03:17:50;2.05;;;1.52;;
65206;SDS011;58477;48.072;11.970;2023-07-13T03:20:15;3.08;;;1.60;;
65206;SDS011;58477;48.072;11.970;2023-07-13T03:22:41;2.08;;;1.55;;
65206;SDS011;58477;48.072;11.970;2023-07-13T03:25:07;2.65;;;1.50;;
65206;SDS011;58477;48.072;11.970;2023-07-13T03:27:34;5.47;;;1.60;;
65206;SDS011;58477;48.072;11.970;2023-07-13T03:30:00;2.00;;;1.73;;
65206;SDS011;58477;48.072;11.970;2023-07-13T03:32:26;2.13;;;1.63;;
65206;SDS011;58477;48.072;11.970;2023-07-13T03:34:52;2.95;;;1.85;;
65206;SDS011;58477;48.072;11.970;2023-07-13T03:37:18;2.13;;;1.80;;
65206;SDS011;58477;48.072;11.970;2023-07-13T03:39:43;2.25;;;2.05;;
65206;SDS011;58477;48.072;11.970;2023-07-13T03:42:10;1.92;;;1.83;;
65206;SDS011;58477;48.072;11.970;2023-07-13T03:44:35;3.13;;;2.08;;
65206;SDS011;58477;48.072;11.970;2023-07-13T03:47:03;5.05;;;2.40;;
65206;SDS011;58477;48.072;11.970;2023-07-13T03:49:31;4.28;;;2.38;;
65206;SDS011;58477;48.072;11.970;2023-07-13T03:51:56;7.35;;;2.58;;
65206;SDS011;58477;48.072;11.970;2023-07-13T03:54:22;4.10;;;2.67;;
65206;SDS011;58477;48.072;11.970;2023-07-13T03:56:47;9.10;;;2.83;;
65206;SDS011;58477;48.072;11.970;2023-07-13T03:59:14;3.70;;;2.67;;
65206;SDS011;58477;48.072;11.970;2023-07-13T04:01:39;3.78;;;2.53;;
65206;SDS011;58477;48.072;11.970;2023-07-13T04:04:05;4.68;;;2.70;;
65206;SDS011;58477;48.072;11.970;2023-07-13T04:06:31;5.00;;;2.67;;
65206;SDS011;58477;48.072;11.970;2023-07-13T04:08:58;4.90;;;2.92;;
65206;SDS011;58477;48.072;11.970;2023-07-13T04:11:25;3.35;;;2.22;;
65206;SDS011;58477;48.072;11.970;2023-07-13T04:13:53;3.78;;;2.33;;
65206;SDS011;58477;48.072;11.970;2023-07-13T04:16:19;6.13;;;2.70;;
65206;SDS011;58477;48.072;11.970;2023-07-13T04:18:46;4.40;;;2.45;;
65206;SDS011;58477;48.072;11.970;2023-07-13T04:21:12;5.50;;;2.35;;
65206;SDS011;58477;48.072;11.970;2023-07-13T04:23:38;4.13;;;2.25;;
65206;SDS011;58477;48.072;11.970;2023-07-13T04:26:04;4.13;;;2.47;;
65206;SDS011;58477;48.072;11.970;2023-07-13T04:28:31;4.70;;;2.38;;
65206;SDS011;58477;48.072;11.970;2023-07-13T04:30:59;4.85;;;2.50;;
65206;SDS011;58477;48.072;11.970;2023-07-13T04:33:25;3.05;;;2.60;;
65206;SDS011;58477;48.072;11.970;2023-07-13T04:35:52;2.33;;;2.00;;
65206;SDS011;58477;48.072;11.970;2023-07-13T04:38:23;3.38;;;2.53;;
65206;SDS011;58477;48.072;11.970;2023-07-13T04:40:50;4.00;;;2.58;;
65206;SDS011;58477;48.072;11.970;2023-07-13T04:43:17;4.40;;;2.60;;
65206;SDS011;58477;48.072;11.970;2023-07-13T04:45:42;4.60;;;2.75;;
65206;SDS011;58477;48.072;11.970;2023-07-13T04:48:08;5.53;;;2.45;;
65206;SDS011;58477;48.072;11.970;2023-07-13T04:50:36;4.60;;;2.60;;
65206;SDS011;58477;48.072;11.970;2023-07-13T04:53:02;3.17;;;2.50;;
65206;SDS011;58477;48.072;11.970;2023-07-13T04:55:29;2.80;;;2.42;;
65206;SDS011;58477;48.072;11.970;2023-07-13T04:57:55;3.38;;;2.42;;
65206;SDS011;58477;48.072;11.970;2023-07-13T05:00:24;4.50;;;2.45;;
65206;SDS011;58477;48.072;11.970;2023-07-13T05:02:50;4.93;;;2.13;;
65206;SDS011;58477;48.072;11.970;2023-07-13T05:05:16;5.47;;;2.47;;
65206;SDS011;58477;48.072;11.970;2023-07-13T05:07:41;6.70;;;2.08;;
65206;SDS011;58477;48.072;11.970;2023-07-13T05:10:07;4.13;;;2.35;;
65206;SDS011;58477;48.072;11.970;2023-07-13T05:12:33;3.50;;;2.67;;
65206;SDS011;58477;48.072;11.970;2023-07-13T05:14:58;3.25;;;2.38;;
65206;SDS011;58477;48.072;11.970;2023-07-13T05:17:24;4.10;;;2.40;;
65206;SDS011;58477;48.072;11.970;2023-07-13T05:19:49;4.63;;;2.25;;
65206;SDS011;58477;48.072;11.970;2023-07-13T05:22:15;3.17;;;2.40;;
65206;SDS011;58477;48.072;11.970;2023-07-13T05:24:40;4.10;;;1.90;;
65206;SDS011;58477;48.072;11.970;2023-07-13T05:27:06;5.78;;;2.40;;
65206;SDS011;58477;48.072;11.970;2023-07-13T05:29:31;5.10;;;2.30;;
65206;SDS011;58477;48.072;11.970;2023-07-13T05:31:57;2.85;;;2.00;;
65206;SDS011;58477;48.072;11.970;2023-07-13T05:34:22;3.53;;;2.33;;
65206;SDS011;58477;48.072;11.970;2023-07-13T05:36:48;3.35;;;2.08;;
65206;SDS011;58477;48.072;11.970;2023-07-13T05:39:14;2.90;;;2.05;;
65206;SDS011;58477;48.072;11.970;2023-07-13T05:41:40;2.78;;;2.00;;
65206;SDS011;58477;48.072;11.970;2023-07-13T05:44:05;2.75;;;2.30;;
65206;SDS011;58477;48.072;11.970;2023-07-13T05:46:31;2.40;;;1.88;;
65206;SDS011;58477;48.072;11.970;2023-07-13T05:48:56;6.38;;;2.10;;
65206;SDS011;58477;48.072;11.970;2023-07-13T05:51:22;2.80;;;1.88;;
65206;SDS011;58477;48.072;11.970;2023-07-13T05:53:47;2.28;;;1.92;;
65206;SDS011;58477;48.072;11.970;2023-07-13T05:56:13;2.63;;;2.03;;
65206;SDS011;58477;48.072;11.970;2023-07-13T05:58:38;2.35;;;1.85;;
65206;SDS011;58477;48.072;11.970;2023-07-13T06:01:05;2.97;;;1.80;;
65206;SDS011;58477;48.072;11.970;2023-07-13T06:03:32;2.67;;;1.90;;
65206;SDS011;58477;48.072;11.970;2023-07-13T06:05:58;2.88;;;1.70;;
65206;SDS011;58477;48.072;11.970;2023-07-13T06:08:27;1.98;;;1.77;;
65206;SDS011;58477;48.072;11.970;2023-07-13T06:10:52;4.20;;;1.50;;
65206;SDS011;58477;48.072;11.970;2023-07-13T06:13:18;4.10;;;1.80;;
65206;SDS011;58477;48.072;11.970;2023-07-13T06:15:48;3.60;;;2.00;;
65206;SDS011;58477;48.072;11.970;2023-07-13T06:18:14;3.65;;;1.73;;
65206;SDS011;58477;48.072;11.970;2023-07-13T06:20:39;5.38;;;1.70;;
65206;SDS011;58477;48.072;11.970;2023-07-13T06:23:05;1.45;;;1.33;;
65206;SDS011;58477;48.072;11.970;2023-07-13T06:25:30;7.30;;;1.90;;
65206;SDS011;58477;48.072;11.970;2023-07-13T06:27:56;1.90;;;1.55;;
65206;SDS011;58477;48.072;11.970;2023-07-13T06:30:21;5.65;;;1.90;;
65206;SDS011;58477;48.072;11.970;2023-07-13T06:32:46;3.25;;;1.67;;
65206;SDS011;58477;48.072;11.970;2023-07-13T06:35:12;3.58;;;1.30;;
65206;SDS011;58477;48.072;11.970;2023-07-13T06:37:39;3.75;;;1.35;;
65206;SDS011;58477;48.072;11.970;2023-07-13T06:40:04;2.78;;;1.55;;
65206;SDS011;58477;48.072;11.970;2023-07-13T06:42:31;1.52;;;1.40;;
65206;SDS011;58477;48.072;11.970;2023-07-13T06:44:56;1.85;;;1.55;;
65206;SDS011;58477;48.072;11.970;2023-07-13T06:47:21;2.25;;;1.52;;
65206;SDS011;58477;48.072;11.970;2023-07-13T06:49:47;2.95;;;1.52;;
65206;SDS011;58477;48.072;11.970;2023-07-13T06:52:12;2.70;;;1.60;;
65206;SDS011;58477;48.072;11.970;2023-07-13T06:54:38;1.98;;;1.70;;
65206;SDS011;58477;48.072;11.970;2023-07-13T06:57:03;3.40;;;1.70;;
65206;SDS011;58477;48.072;11.970;2023-07-13T06:59:29;2.35;;;1.70;;
65206;SDS011;58477;48.072;11.970;2023-07-13T07:01:54;2.67;;;1.63;;
65206;SDS011;58477;48.072;11.970;2023-07-13T07:04:20;1.80;;;1.65;;
65206;SDS011;58477;48.072;11.970;2023-07-13T07:06:45;2.90;;;1.80;;
65206;SDS011;58477;48.072;11.970;2023-07-13T07:09:11;3.10;;;2.03;;
65206;SDS011;58477;48.072;11.970;2023-07-13T07:11:36;3.20;;;1.48;;
65206;SDS011;58477;48.072;11.970;2023-07-13T07:14:02;2.53;;;1.48;;
65206;SDS011;58477;48.072;11.970;2023-07-13T07:16:27;2.15;;;1.83;;
65206;SDS011;58477;48.072;11.970;2023-07-13T07:18:53;4.78;;;1.45;;
65206;SDS011;58477;48.072;11.970;2023-07-13T07:21:18;1.42;;;1.33;;
65206;SDS011;58477;48.072;11.970;2023-07-13T07:23:44;3.15;;;1.63;;
65206;SDS011;58477;48.072;11.970;2023-07-13T07:26:09;5.55;;;1.52;;
65206;SDS011;58477;48.072;11.970;2023-07-13T07:28:35;2.63;;;1.58;;
65206;SDS011;58477;48.072;11.970;2023-07-13T07:31:01;1.80;;;1.35;;
65206;SDS011;58477;48.072;11.970;2023-07-13T07:33:26;2.47;;;1.73;;
65206;SDS011;58477;48.072;11.970;2023-07-13T07:35:52;2.08;;;1.75;;
65206;SDS011;58477;48.072;11.970;2023-07-13T07:38:17;2.58;;;1.63;;
65206;SDS011;58477;48.072;11.970;2023-07-13T07:40:43;1.67;;;1.33;;
65206;SDS011;58477;48.072;11.970;2023-07-13T07:43:10;12.10;;;1.85;;
65206;SDS011;58477;48.072;11.970;2023-07-13T07:45:38;3.47;;;1.88;;
65206;SDS011;58477;48.072;11.970;2023-07-13T07:48:05;5.38;;;1.60;;
65206;SDS011;58477;48.072;11.970;2023-07-13T07:50:32;5.13;;;1.80;;
65206;SDS011;58477;48.072;11.970;2023-07-13T07:52:57;2.50;;;1.70;;
65206;SDS011;58477;48.072;11.970;2023-07-13T07:55:23;2.30;;;1.50;;
65206;SDS011;58477;48.072;11.970;2023-07-13T07:57:53;5.15;;;1.50;;
65206;SDS011;58477;48.072;11.970;2023-07-13T08:00:19;2.38;;;1.65;;
65206;SDS011;58477;48.072;11.970;2023-07-13T08:02:46;3.28;;;1.83;;
65206;SDS011;58477;48.072;11.970;2023-07-13T08:05:11;6.07;;;1.73;;
65206;SDS011;58477;48.072;11.970;2023-07-13T08:07:37;2.38;;;1.50;;
65206;SDS011;58477;48.072;11.970;2023-07-13T08:10:04;13.20;;;1.83;;
65206;SDS011;58477;48.072;11.970;2023-07-13T08:12:37;5.20;;;1.83;;
65206;SDS011;58477;48.072;11.970;2023-07-13T08:15:04;2.40;;;1.50;;
65206;SDS011;58477;48.072;11.970;2023-07-13T08:17:32;2.33;;;1.70;;
65206;SDS011;58477;48.072;11.970;2023-07-13T08:19:57;3.08;;;1.67;;
65206;SDS011;58477;48.072;11.970;2023-07-13T08:22:22;4.45;;;1.65;;
65206;SDS011;58477;48.072;11.970;2023-07-13T08:24:48;2.03;;;1.65;;
65206;SDS011;58477;48.072;11.970;2023-07-13T08:27:21;3.17;;;1.80;;
65206;SDS011;58477;48.072;11.970;2023-07-13T08:29:47;2.70;;;1.58;;
65206;SDS011;58477;48.072;11.970;2023-07-13T08:32:13;3.60;;;1.80;;
65206;SDS011;58477;48.072;11.970;2023-07-13T08:34:39;1.90;;;1.40;;
65206;SDS011;58477;48.072;11.970;2023-07-13T08:37:05;1.83;;;1.65;;
65206;SDS011;58477;48.072;11.970;2023-07-13T08:39:31;2.05;;;1.67;;
65206;SDS011;58477;48.072;11.970;2023-07-13T08:42:44;2.67;;;1.80;;
65206;SDS011;58477;48.072;11.970;2023-07-13T08:47:22;4.47;;;2.13;;
65206;SDS011;58477;48.072;11.970;2023-07-13T08:49:49;4.63;;;1.80;;
65206;SDS011;58477;48.072;11.970;2023-07-13T08:54:50;6.05;;;1.90;;
65206;SDS011;58477;48.072;11.970;2023-07-13T08:57:18;2.28;;;2.08;;
65206;SDS011;58477;48.072;11.970;2023-07-13T08:59:48;4.00;;;2.55;;
65206;SDS011;58477;48.072;11.970;2023-07-13T09:02:28;3.65;;;2.30;;
65206;SDS011;58477;48.072;11.970;2023-07-13T09:05:22;5.77;;;2.70;;
65206;SDS011;58477;48.072;11.970;2023-07-13T09:10:59;6.75;;;2.67;;
65206;SDS011;58477;48.072;11.970;2023-07-13T09:16:34;5.15;;;2.38;;
65206;SDS011;58477;48.072;11.970;2023-07-13T09:19:04;3.90;;;2.13;;
65206;SDS011;58477;48.072;11.970;2023-07-13T09:21:32;4.97;;;2.10;;
65206;SDS011;58477;48.072;11.970;2023-07-13T09:26:59;5.82;;;2.10;;
65206;SDS011;58477;48.072;11.970;2023-07-13T09:29:31;3.38;;;2.17;;
65206;SDS011;58477;48.072;11.970;2023-07-13T09:32:01;7.30;;;2.47;;
65206;SDS011;58477;48.072;11.970;2023-07-13T09:34:29;3.92;;;2.10;;
65206;SDS011;58477;48.072;11.970;2023-07-13T09:36:57;5.15;;;2.72;;
65206;SDS011;58477;48.072;11.970;2023-07-13T09:39:27;5.00;;;2.65;;
65206;SDS011;58477;48.072;11.970;2023-07-13T09:44:50;3.42;;;2.30;;
65206;SDS011;58477;48.072;11.970;2023-07-13T09:47:21;6.53;;;2.47;;
65206;SDS011;58477;48.072;11.970;2023-07-13T09:49:59;6.18;;;2.45;;
65206;SDS011;58477;48.072;11.970;2023-07-13T09:52:26;3.08;;;2.22;;
65206;SDS011;58477;48.072;11.970;2023-07-13T09:54:53;2.30;;;2.10;;
65206;SDS011;58477;48.072;11.970;2023-07-13T09:57:25;3.75;;;2.47;;
65206;SDS011;58477;48.072;11.970;2023-07-13T09:59:53;3.83;;;1.90;;
65206;SDS011;58477;48.072;11.970;2023-07-13T10:02:25;4.22;;;2.08;;
65206;SDS011;58477;48.072;11.970;2023-07-13T10:04:59;2.90;;;2.38;;
65206;SDS011;58477;48.072;11.970;2023-07-13T10:07:28;3.22;;;2.30;;
65206;SDS011;58477;48.072;11.970;2023-07-13T10:09:55;5.07;;;2.38;;
65206;SDS011;58477;48.072;11.970;2023-07-13T10:12:22;2.20;;;1.88;;
65206;SDS011;58477;48.072;11.970;2023-07-13T10:14:50;2.92;;;2.00;;
65206;SDS011;58477;48.072;11.970;2023-07-13T10:17:20;4.25;;;2.38;;
65206;SDS011;58477;48.072;11.970;2023-07-13T10:19:55;2.60;;;1.85;;
65206;SDS011;58477;48.072;11.970;2023-07-13T10:25:17;3.83;;;1.73;;
65206;SDS011;58477;48.072;11.970;2023-07-13T10:27:44;4.35;;;1.92;;
65206;SDS011;58477;48.072;11.970;2023-07-13T10:32:45;8.98;;;2.17;;
65206;SDS011;58477;48.072;11.970;2023-07-13T10:35:12;4.45;;;1.90;;
65206;SDS011;58477;48.072;11.970;2023-07-13T10:40:11;1.83;;;1.67;;
65206;SDS011;58477;48.072;11.970;2023-07-13T10:42:42;5.35;;;2.20;;
65206;SDS011;58477;48.072;11.970;2023-07-13T10:45:14;7.28;;;1.98;;
65206;SDS011;58477;48.072;11.970;2023-07-13T10:50:12;3.72;;;1.70;;
65206;SDS011;58477;48.072;11.970;2023-07-13T10:52:50;2.85;;;1.90;;
65206;SDS011;58477;48.072;11.970;2023-07-13T10:58:03;4.03;;;1.80;;
65206;SDS011;58477;48.072;11.970;2023-07-13T11:03:28;3.28;;;1.20;;
65206;SDS011;58477;48.072;11.970;2023-07-13T11:08:37;4.05;;;1.40;;
65206;SDS011;58477;48.072;11.970;2023-07-13T11:18:49;4.22;;;1.30;;
65206;SDS011;58477;48.072;11.970;2023-07-13T11:23:52;3.10;;;1.20;;
65206;SDS011;58477;48.072;11.970;2023-07-13T11:31:51;4.05;;;1.20;;
65206;SDS011;58477;48.072;11.970;2023-07-13T11:34:25;1.48;;;0.90;;
65206;SDS011;58477;48.072;11.970;2023-07-13T11:36:55;5.43;;;1.42;;
65206;SDS011;58477;48.072;11.970;2023-07-13T11:39:24;2.33;;;1.20;;
65206;SDS011;58477;48.072;11.970;2023-07-13T11:41:57;1.73;;;1.42;;
65206;SDS011;58477;48.072;11.970;2023-07-13T11:44:26;2.03;;;1.17;;
65206;SDS011;58477;48.072;11.970;2023-07-13T11:46:54;2.85;;;1.10;;
65206;SDS011;58477;48.072;11.970;2023-07-13T11:49:22;1.95;;;1.40;;
65206;SDS011;58477;48.072;11.970;2023-07-13T11:51:49;1.13;;;0.90;;
65206;SDS011;58477;48.072;11.970;2023-07-13T11:57:11;3.53;;;1.20;;
65206;SDS011;58477;48.072;11.970;2023-07-13T12:00:00;5.65;;;1.20;;
65206;SDS011;58477;48.072;11.970;2023-07-13T12:02:36;6.07;;;1.42;;
65206;SDS011;58477;48.072;11.970;2023-07-13T12:05:09;6.85;;;1.33;;
65206;SDS011;58477;48.072;11.970;2023-07-13T12:07:38;2.80;;;1.13;;
65206;SDS011;58477;48.072;11.970;2023-07-13T12:10:23;1.88;;;1.20;;
65206;SDS011;58477;48.072;11.970;2023-07-13T12:12:57;3.25;;;1.63;;
65206;SDS011;58477;48.072;11.970;2023-07-13T12:15:23;3.53;;;1.27;;
65206;SDS011;58477;48.072;11.970;2023-07-13T12:17:54;2.67;;;1.30;;
65206;SDS011;58477;48.072;11.970;2023-07-13T12:22:49;3.95;;;1.48;;
65206;SDS011;58477;48.072;11.970;2023-07-13T12:25:15;3.95;;;1.50;;
65206;SDS011;58477;48.072;11.970;2023-07-13T12:27:42;1.98;;;1.17;;
65206;SDS011;58477;48.072;11.970;2023-07-13T12:30:23;3.33;;;1.30;;
65206;SDS011;58477;48.072;11.970;2023-07-13T12:35:46;1.38;;;1.02;;
65206;SDS011;58477;48.072;11.970;2023-07-13T12:38:13;2.97;;;1.60;;
65206;SDS011;58477;48.072;11.970;2023-07-13T12:40:39;2.28;;;1.10;;
65206;SDS011;58477;48.072;11.970;2023-07-13T12:43:10;2.53;;;1.25;;
65206;SDS011;58477;48.072;11.970;2023-07-13T12:45:38;3.03;;;1.52;;
65206;SDS011;58477;48.072;11.970;2023-07-13T12:48:14;2.60;;;1.20;;
65206;SDS011;58477;48.072;11.970;2023-07-13T12:50:41;2.58;;;1.30;;
65206;SDS011;58477;48.072;11.970;2023-07-13T12:53:15;1.77;;;1.30;;
65206;SDS011;58477;48.072;11.970;2023-07-13T12:55:46;6.13;;;1.05;;
65206;SDS011;58477;48.072;11.970;2023-07-13T13:00:59;2.03;;;1.08;;
65206;SDS011;58477;48.072;11.970;2023-07-13T13:03:30;2.67;;;1.25;;
65206;SDS011;58477;48.072;11.970;2023-07-13T13:06:02;2.72;;;1.10;;
65206;SDS011;58477;48.072;11.970;2023-07-13T13:08:33;3.08;;;1.35;;
65206;SDS011;58477;48.072;11.970;2023-07-13T13:11:03;3.63;;;1.33;;
65206;SDS011;58477;48.072;11.970;2023-07-13T13:13:28;4.45;;;1.40;;
65206;SDS011;58477;48.072;11.970;2023-07-13T13:15:54;1.73;;;1.25;;
65206;SDS011;58477;48.072;11.970;2023-07-13T13:18:20;2.58;;;1.40;;
65206;SDS011;58477;48.072;11.970;2023-07-13T13:20:48;2.85;;;1.30;;
65206;SDS011;58477;48.072;11.970;2023-07-13T13:23:15;3.58;;;1.40;;
65206;SDS011;58477;48.072;11.970;2023-07-13T13:25:43;2.20;;;1.35;;
65206;SDS011;58477;48.072;11.970;2023-07-13T13:28:16;1.38;;;1.27;;
65206;SDS011;58477;48.072;11.970;2023-07-13T13:30:44;2.70;;;1.20;;
65206;SDS011;58477;48.072;11.970;2023-07-13T13:33:13;1.42;;;1.30;;
65206;SDS011;58477;48.072;11.970;2023-07-13T13:35:42;4.18;;;1.70;;
65206;SDS011;58477;48.072;11.970;2023-07-13T13:38:19;7.55;;;1.30;;
65206;SDS011;58477;48.072;11.970;2023-07-13T13:40:47;3.85;;;1.50;;
65206;SDS011;58477;48.072;11.970;2023-07-13T13:43:16;4.20;;;1.35;;
65206;SDS011;58477;48.072;11.970;2023-07-13T13:45:59;7.95;;;1.17;;
65206;SDS011;58477;48.072;11.970;2023-07-13T13:48:31;1.48;;;1.00;;
65206;SDS011;58477;48.072;11.970;2023-07-13T13:50:58;3.85;;;0.93;;
65206;SDS011;58477;48.072;11.970;2023-07-13T13:53:25;2.80;;;1.30;;
65206;SDS011;58477;48.072;11.970;2023-07-13T13:55:50;4.35;;;1.08;;
65206;SDS011;58477;48.072;11.970;2023-07-13T13:58:17;3.38;;;1.55;;
65206;SDS011;58477;48.072;11.970;2023-07-13T14:00:43;2.30;;;1.00;;
65206;SDS011;58477;48.072;11.970;2023-07-13T14:03:20;2.65;;;1.42;;
65206;SDS011;58477;48.072;11.970;2023-07-13T14:05:47;1.65;;;0.95;;
65206;SDS011;58477;48.072;11.970;2023-07-13T14:08:14;3.17;;;1.08;;
65206;SDS011;58477;48.072;11.970;2023-07-13T14:10:41;2.72;;;1.20;;
65206;SDS011;58477;48.072;11.970;2023-07-13T14:13:14;3.70;;;1.33;;
65206;SDS011;58477;48.072;11.970;2023-07-13T14:15:43;3.65;;;1.05;;
65206;SDS011;58477;48.072;11.970;2023-07-13T14:18:10;2.97;;;1.30;;
65206;SDS011;58477;48.072;11.970;2023-07-13T14:20:35;1.27;;;1.02;;
65206;SDS011;58477;48.072;11.970;2023-07-13T14:23:01;1.60;;;1.10;;
65206;SDS011;58477;48.072;11.970;2023-07-13T14:25:26;3.40;;;1.10;;
65206;SDS011;58477;48.072;11.970;2023-07-13T14:27:53;3.22;;;1.00;;
65206;SDS011;58477;48.072;11.970;2023-07-13T14:32:49;3.05;;;1.08;;
65206;SDS011;58477;48.072;11.970;2023-07-13T14:35:15;2.00;;;1.10;;
65206;SDS011;58477;48.072;11.970;2023-07-13T14:37:43;1.90;;;1.00;;
65206;SDS011;58477;48.072;11.970;2023-07-13T14:42:39;2.05;;;0.90;;
65206;SDS011;58477;48.072;11.970;2023-07-13T14:45:05;1.25;;;0.90;;
65206;SDS011;58477;48.072;11.970;2023-07-13T14:47:36;3.25;;;1.02;;
65206;SDS011;58477;48.072;11.970;2023-07-13T14:50:02;1.27;;;1.00;;
65206;SDS011;58477;48.072;11.970;2023-07-13T14:52:30;2.17;;;1.30;;
65206;SDS011;58477;48.072;11.970;2023-07-13T14:54:56;3.25;;;1.20;;
65206;SDS011;58477;48.072;11.970;2023-07-13T14:57:21;5.55;;;1.42;;
65206;SDS011;58477;48.072;11.970;2023-07-13T14:59:47;5.70;;;1.50;;
65206;SDS011;58477;48.072;11.970;2023-07-13T15:02:29;2.13;;;1.00;;
65206;SDS011;58477;48.072;11.970;2023-07-13T15:04:58;1.77;;;1.20;;
65206;SDS011;58477;48.072;11.970;2023-07-13T15:07:24;3.40;;;1.38;;
65206;SDS011;58477;48.072;11.970;2023-07-13T15:09:50;1.13;;;0.98;;
65206;SDS011;58477;48.072;11.970;2023-07-13T15:12:16;3.13;;;1.20;;
65206;SDS011;58477;48.072;11.970;2023-07-13T15:14:42;2.03;;;1.30;;
65206;SDS011;58477;48.072;11.970;2023-07-13T15:20:03;2.00;;;0.98;;
65206;SDS011;58477;48.072;11.970;2023-07-13T15:22:40;6.45;;;1.30;;
65206;SDS011;58477;48.072;11.970;2023-07-13T15:25:11;1.30;;;1.00;;
65206;SDS011;58477;48.072;11.970;2023-07-13T15:27:42;4.15;;;1.17;;
65206;SDS011;58477;48.072;11.970;2023-07-13T15:30:08;2.55;;;1.20;;
65206;SDS011;58477;48.072;11.970;2023-07-13T15:32:34;2.08;;;1.20;;
65206;SDS011;58477;48.072;11.970;2023-07-13T15:34:59;2.42;;;1.10;;
65206;SDS011;58477;48.072;11.970;2023-07-13T15:37:25;4.90;;;0.90;;
65206;SDS011;58477;48.072;11.970;2023-07-13T15:39:50;4.53;;;1.10;;
65206;SDS011;58477;48.072;11.970;2023-07-13T15:42:16;3.40;;;1.15;;
65206;SDS011;58477;48.072;11.970;2023-07-13T15:44:42;1.67;;;0.98;;
65206;SDS011;58477;48.072;11.970;2023-07-13T15:47:16;1.50;;;0.95;;
65206;SDS011;58477;48.072;11.970;2023-07-13T15:49:43;1.80;;;1.00;;
65206;SDS011;58477;48.072;11.970;2023-07-13T15:52:18;1.17;;;0.88;;